Brandon, South Dakota
Current Conditions -  °F | °C
As of 7:56 AM on Friday 24 Oct 2014 (Local Time) from KFSD Reporting Station
Haze Haze  
Wind Chill: 49°   Ceiling: Unl
Heat Index: 49°   Visibility: 3mi
Dew Point: 49°   Wind: 3mph
Humidity: 100%   Direction: 250°WSW
Pressure: 29.85"   Gusts: NA
Location:  43.59°N, 96.57°W
Report Text: KFSD 241256Z 25003KT 3SM BR SCT200 09/09 A2985 RMK AO2 SFC VIS 4 SLP110 T00940094
Loading
Personal Weather Stations






























Interactive Weather Map
Tropical Storm Tracking
New forecast layout! Learn more

10-Day Weather Forecast

Advertisements
Track Severe Weather on mobile